Colonia del Sacramento, Uruguay

1:00 PM UYT en Septiembre 20, 2014 (GMT -0300)
Puerto de Colonia (ROU) | Change Station
CLOSE
Current Station
Estación meteorológica personal
Location: Colonia Del Sacramento, DEPARTAMENTO DE COLONIA
Altura: 0 ft
Estaciones meteorológicas cercanas

Alt 0 ft 34.46 °S, 57.83 °W | Updated 20 seconds ago

Clear
Despejado
67.3 ° F
Sensación térmica 67.3 ° F
N
9.6
Viento Variable Viento desde SSO
Gusts 9.8 mph

Hoy
Alta -- | Baja -- ° F
--% Posibilidad de precipitaciones
Ayer
Alta -- | Baja -- ° F
Precip. -- pul
6:43 AM 6:46 PM
Creciente menguante, 11% visible
Presión 30.06 pul
Visibilidad -9999.0 Millas
Nubes
Punto de rocío 50 ° F
Humedad 55%
Precipitaciones 0.00 pul
Espesor de la nieve No disponible.
UV 4.0 de una escala de 12
Polen No disponible.
Calidad del aire No disponible.
Flu Activity No disponible.
METAR SABE 201500Z 23010KT CAVOK 21/05 Q1018

More Conditions Fewer Conditions

Presión 30.06 pul
Visibilidad -9999.0 Millas
Nubes
Punto de rocío 50 ° F
Humedad 55%
Precipitaciones 0.00 pul
Espesor de la nieve No disponible.
UV 4.0 de una escala de 12
Polen No disponible.
Calidad del aire No disponible.
Flu Activity No disponible.
METAR SABE 201500Z 23010KT CAVOK 21/05 Q1018

More Conditions Fewer Conditions

10-Day Weather Forecast

Almanac

Astronomía

Sep. 20, 2014 Salida Puesta
Hora real 6:43 AM UYT 6:46 PM UYT
Crepúsculo civil 6:18 AM UYT 7:11 PM UYT
Crepúsculo náutico 5:49 AM UYT 7:40 PM UYT
Crepúsculo astronómico 5:19 AM UYT 8:10 PM UYT
Luna 4:29 AM UYT 3:44 PM UYT
Horas de luz 12h 52m
Horas de luz
12h 02m
Tomorrow will be 2m 8s longer.
Creciente menguante, 11% of the Moon is Illuminated
Hoy
Creciente menguante
Sep 24
Nueva
Oct 1
Cuarto creciente
Oct 8
Luna llena
Oct 15
Cuarto menguante

Extremos de hoy

Máximos del país Bajas del país

Community

WunderPhotos

Upload Photos

1,754,888 ¡fotos cargadas!

Nearby

Calidad del aire

Not available.

Grosos de nieve

Not available.

Actividad de terremotos

Ciudad Distance Mag. Tiempo y dato
No hay informes recientes de la actividad sísmica.
Magnitud mínima muestra es 2,5.

Temperaturas de aguas costeras

Lugar Temperatura
Sin partes meteorológicos de las estaciones

Estaciones meteorológicas cercanas